createdAt,value
2023-04-03T00:00:04.396Z,53.43
2023-04-03T00:02:06.293Z,53.14
2023-04-03T00:04:08.192Z,53.35
2023-04-03T00:06:11.807Z,53.33
2023-04-03T00:08:14.057Z,53.06
2023-04-03T00:10:16.622Z,52.92
2023-04-03T00:12:18.538Z,53.44
2023-04-03T00:14:20.737Z,53.64
2023-04-03T00:16:22.549Z,53.54
2023-04-03T00:18:24.420Z,53.71
2023-04-03T00:20:27.140Z,53.65
2023-04-03T00:22:29.769Z,54.09
2023-04-03T00:24:31.547Z,54.00
2023-04-03T00:26:33.486Z,54.13
2023-04-03T00:28:35.543Z,53.50
2023-04-03T00:30:37.925Z,54.14
2023-04-03T00:32:40.017Z,54.40
2023-04-03T00:34:41.820Z,54.28
2023-04-03T00:36:43.776Z,53.79
2023-04-03T00:38:45.613Z,54.70
2023-04-03T00:40:49.754Z,54.49
2023-04-03T00:42:57.758Z,54.29
2023-04-03T00:45:01.851Z,54.20
2023-04-03T00:47:06.974Z,53.92
2023-04-03T00:49:08.855Z,54.51
2023-04-03T00:51:15.686Z,54.49
2023-04-03T00:53:22.931Z,55.30
2023-04-03T00:55:25.033Z,54.63
2023-04-03T00:57:28.015Z,54.72
2023-04-03T00:59:34.604Z,54.69
2023-04-03T01:01:39.374Z,54.53
2023-04-03T01:03:41.448Z,55.02
2023-04-03T01:05:43.285Z,54.70
2023-04-03T01:07:46.166Z,55.08
2023-04-03T01:09:52.758Z,54.94
2023-04-03T01:11:54.576Z,54.97
2023-04-03T01:13:56.446Z,54.99
2023-04-03T01:15:58.733Z,55.13
2023-04-03T01:18:03.951Z,54.72
2023-04-03T01:20:12.840Z,55.20
2023-04-03T01:22:27.108Z,55.14
2023-04-03T01:24:36.385Z,55.24
2023-04-03T01:26:38.307Z,54.88
2023-04-03T01:28:40.094Z,55.67
2023-04-03T01:30:50.039Z,54.99
2023-04-03T01:32:51.843Z,54.91
2023-04-03T01:34:53.688Z,55.48
2023-04-03T01:36:56.022Z,55.21
2023-04-03T01:39:00.234Z,55.46
2023-04-03T01:41:02.218Z,55.56
2023-04-03T01:43:07.228Z,55.67
2023-04-03T01:45:10.028Z,55.62
2023-04-03T01:47:11.862Z,55.98
2023-04-03T01:49:13.673Z,55.67
2023-04-03T01:51:15.618Z,55.54
2023-04-03T01:53:17.515Z,56.30
2023-04-03T01:55:19.938Z,56.07
2023-04-03T01:57:21.795Z,56.26
2023-04-03T01:59:23.704Z,56.81
2023-04-03T02:01:27.045Z,56.30
2023-04-03T02:03:28.972Z,56.21
2023-04-03T02:05:31.188Z,56.97
2023-04-03T02:07:33.168Z,56.79
2023-04-03T02:09:34.935Z,56.65
2023-04-03T02:11:36.853Z,56.70
2023-04-03T02:13:38.616Z,57.26
2023-04-03T02:15:40.752Z,57.14
2023-04-03T02:17:42.681Z,56.75
2023-04-03T02:19:44.553Z,56.59
2023-04-03T02:21:46.290Z,56.41
2023-04-03T02:23:48.110Z,56.66
2023-04-03T02:25:50.314Z,56.51
2023-04-03T02:27:52.282Z,56.08
2023-04-03T02:29:54.215Z,56.47
2023-04-03T02:31:56.362Z,56.52
2023-04-03T02:33:58.141Z,56.92
2023-04-03T02:36:00.422Z,56.75
2023-04-03T02:38:02.272Z,56.91
2023-04-03T02:40:05.729Z,56.73
2023-04-03T02:42:08.370Z,56.82
2023-04-03T02:44:13.356Z,56.91
2023-04-03T02:46:16.658Z,57.08
2023-04-03T02:48:18.629Z,56.92
2023-04-03T02:50:20.393Z,56.75
2023-04-03T02:52:22.259Z,56.79
2023-04-03T02:54:25.500Z,56.95
2023-04-03T02:56:27.873Z,57.00
2023-04-03T02:58:29.650Z,57.64
2023-04-03T03:00:31.645Z,57.43
2023-04-03T03:02:33.464Z,57.68
2023-04-03T03:04:37.914Z,57.42
2023-04-03T03:06:39.853Z,57.42
2023-04-03T03:08:42.376Z,57.21
2023-04-03T03:10:46.028Z,57.22
2023-04-03T03:12:47.870Z,56.96
2023-04-03T03:14:49.766Z,57.77
2023-04-03T03:16:51.681Z,57.37
2023-04-03T03:18:53.527Z,57.43
2023-04-03T03:20:57.732Z,57.47
2023-04-03T03:22:59.505Z,57.27
2023-04-03T03:25:02.211Z,57.83
2023-04-03T03:27:04.105Z,58.11
2023-04-03T03:29:05.933Z,58.26
2023-04-03T03:31:08.766Z,57.99
2023-04-03T03:33:10.613Z,57.70
2023-04-03T03:35:12.393Z,57.86
2023-04-03T03:37:14.314Z,58.08
2023-04-03T03:39:16.301Z,58.14
2023-04-03T03:41:18.093Z,57.83
2023-04-03T03:43:21.228Z,58.04
2023-04-03T03:45:23.053Z,58.18
2023-04-03T03:47:24.944Z,57.80
2023-04-03T03:49:26.721Z,57.71
2023-04-03T03:51:28.688Z,57.81
2023-04-03T03:53:30.544Z,57.53
2023-04-03T03:55:32.386Z,57.82
2023-04-03T03:57:34.159Z,57.55
2023-04-03T03:59:35.966Z,58.17
2023-04-03T04:01:40.877Z,58.48
2023-04-03T04:03:42.874Z,58.82
2023-04-03T04:05:45.376Z,58.26
2023-04-03T04:07:47.181Z,58.65
2023-04-03T04:09:49.124Z,58.93
2023-04-03T04:11:50.945Z,58.51
2023-04-03T04:13:52.741Z,58.45
2023-04-03T04:15:54.586Z,58.64
2023-04-03T04:17:56.586Z,58.73
2023-04-03T04:19:58.554Z,59.05
2023-04-03T04:22:00.454Z,58.87
2023-04-03T04:24:02.291Z,58.63
2023-04-03T04:26:04.193Z,59.47
2023-04-03T04:28:06.522Z,59.55
2023-04-03T04:30:09.473Z,59.07
2023-04-03T04:32:11.379Z,59.37
2023-04-03T04:34:14.142Z,59.60
2023-04-03T04:36:16.453Z,59.28
2023-04-03T04:38:18.641Z,59.44
2023-04-03T04:40:20.522Z,59.07
2023-04-03T04:42:22.408Z,58.83
2023-04-03T04:44:24.284Z,59.23
2023-04-03T04:46:26.192Z,59.18
2023-04-03T04:48:27.994Z,59.77
2023-04-03T04:50:29.974Z,59.94
2023-04-03T04:52:31.693Z,59.66
2023-04-03T04:54:33.745Z,59.96
2023-04-03T04:56:35.567Z,59.70
2023-04-03T04:58:37.389Z,59.35
2023-04-03T05:00:39.152Z,59.71
2023-04-03T05:02:41.161Z,59.82
2023-04-03T05:04:43.097Z,59.76
2023-04-03T05:06:44.945Z,59.65
2023-04-03T05:08:46.753Z,59.45
2023-04-03T05:10:48.701Z,59.62
2023-04-03T05:12:50.475Z,60.15
2023-04-03T05:14:52.350Z,60.71
2023-04-03T05:16:55.004Z,60.26
2023-04-03T05:18:56.851Z,59.84
2023-04-03T05:20:59.832Z,59.91
2023-04-03T05:23:01.944Z,60.06
2023-04-03T05:25:04.368Z,60.17
2023-04-03T05:27:06.136Z,59.69
2023-04-03T05:29:08.027Z,59.95
2023-04-03T05:31:09.877Z,59.93
2023-04-03T05:33:12.347Z,60.21
2023-04-03T05:35:14.675Z,60.05
2023-04-03T05:37:16.865Z,59.56
2023-04-03T05:39:19.022Z,59.66
2023-04-03T05:41:21.992Z,59.79
2023-04-03T05:43:23.949Z,59.63
2023-04-03T05:45:25.898Z,59.79
2023-04-03T05:47:27.901Z,59.27
2023-04-03T05:49:29.871Z,59.58
2023-04-03T05:51:36.542Z,59.45
2023-04-03T05:53:38.484Z,59.76
2023-04-03T05:55:40.315Z,59.53
2023-04-03T05:57:42.178Z,59.61
2023-04-03T05:59:45.651Z,59.33
2023-04-03T06:01:47.955Z,59.52
2023-04-03T06:03:50.008Z,59.84
2023-04-03T06:05:52.071Z,59.75
2023-04-03T06:07:53.913Z,59.58
2023-04-03T06:09:57.620Z,59.72
2023-04-03T06:11:59.926Z,59.50
2023-04-03T06:14:01.841Z,59.71
2023-04-03T06:16:05.076Z,59.10
2023-04-03T06:18:08.009Z,59.60
2023-04-03T06:20:11.080Z,59.18
2023-04-03T06:22:13.063Z,59.55
2023-04-03T06:24:17.272Z,59.13
2023-04-03T06:26:19.140Z,59.09
2023-04-03T06:28:21.049Z,58.96
2023-04-03T06:30:23.046Z,59.49
2023-04-03T06:32:24.951Z,58.96
2023-04-03T06:34:26.998Z,58.87
2023-04-03T06:36:29.154Z,58.82
2023-04-03T06:38:31.227Z,59.02
2023-04-03T06:40:33.214Z,59.28
2023-04-03T06:42:35.249Z,59.04
2023-04-03T06:44:37.126Z,59.47
2023-04-03T06:46:40.169Z,59.74
2023-04-03T06:48:44.974Z,59.37
2023-04-03T06:50:46.843Z,59.23
2023-04-03T06:52:48.727Z,59.09
2023-04-03T06:54:52.861Z,59.20
2023-04-03T06:56:54.750Z,59.19
2023-04-03T06:58:58.744Z,59.01
2023-04-03T07:01:01.319Z,59.07
2023-04-03T07:03:03.927Z,59.01
2023-04-03T07:05:07.153Z,59.36
2023-04-03T07:07:09.523Z,58.98
2023-04-03T07:09:12.437Z,59.32
2023-04-03T07:11:14.602Z,59.54
2023-04-03T07:13:16.785Z,59.41
2023-04-03T07:15:18.857Z,59.30
2023-04-03T07:17:21.209Z,59.43
2023-04-03T07:19:23.257Z,59.60
2023-04-03T07:21:25.554Z,59.68
2023-04-03T07:23:28.907Z,59.73
2023-04-03T07:25:31.207Z,59.55
2023-04-03T07:27:35.082Z,59.40
2023-04-03T07:29:37.379Z,59.60
2023-04-03T07:31:41.005Z,59.27
2023-04-03T07:33:43.610Z,59.31
2023-04-03T07:35:46.379Z,59.71
2023-04-03T07:37:48.385Z,59.93
2023-04-03T07:39:50.445Z,59.76
2023-04-03T07:41:52.626Z,60.13
2023-04-03T07:43:54.721Z,59.82
2023-04-03T07:45:57.106Z,59.94
2023-04-03T07:47:59.147Z,59.54
2023-04-03T07:50:01.070Z,59.52
2023-04-03T07:52:04.600Z,59.42
2023-04-03T07:54:06.764Z,59.31
2023-04-03T07:56:09.225Z,59.69
2023-04-03T07:58:12.145Z,59.34
2023-04-03T08:00:15.123Z,59.13
2023-04-03T08:02:17.070Z,58.81
2023-04-03T08:04:19.201Z,58.88
2023-04-03T08:06:29.380Z,59.20
2023-04-03T08:08:36.654Z,59.21
2023-04-03T08:10:38.875Z,58.73
2023-04-03T08:12:41.048Z,58.61
2023-04-03T08:14:42.973Z,58.78
2023-04-03T08:16:46.862Z,58.69
2023-04-03T08:18:49.360Z,58.54
2023-04-03T08:20:52.760Z,58.52
2023-04-03T08:22:55.058Z,58.32
2023-04-03T08:24:59.251Z,58.16
2023-04-03T08:27:02.192Z,58.64
2023-04-03T08:29:04.655Z,58.43
2023-04-03T08:31:16.626Z,58.60
2023-04-03T08:33:18.657Z,58.48
2023-04-03T08:35:21.648Z,57.85
2023-04-03T08:37:23.655Z,58.66
2023-04-03T08:39:26.091Z,58.17
2023-04-03T08:41:34.304Z,58.16
2023-04-03T08:43:43.767Z,58.41
2023-04-03T08:45:51.798Z,58.43
2023-04-03T08:48:01.893Z,58.51
2023-04-03T08:50:10.828Z,58.79
2023-04-03T08:52:16.714Z,58.10
2023-04-03T08:54:28.417Z,57.72
2023-04-03T08:56:32.561Z,57.75
2023-04-03T08:58:47.015Z,58.04
2023-04-03T09:00:59.127Z,58.31
2023-04-03T09:03:01.575Z,57.81
2023-04-03T09:05:13.836Z,58.07
2023-04-03T09:07:32.815Z,58.23
2023-04-03T09:09:42.419Z,57.76
2023-04-03T09:11:54.576Z,57.17
2023-04-03T09:14:04.198Z,57.37
2023-04-03T09:16:21.586Z,56.84
2023-04-03T09:18:37.103Z,56.50
2023-04-03T09:20:45.079Z,56.34
2023-04-03T09:22:52.165Z,56.44
2023-04-03T09:25:18.175Z,56.00
2023-04-03T09:27:20.183Z,54.81
2023-04-03T09:29:24.909Z,55.02
2023-04-03T09:31:30.726Z,53.67
2023-04-03T09:33:32.935Z,53.58
2023-04-03T09:35:47.329Z,53.84
2023-04-03T09:37:53.109Z,54.39
2023-04-03T09:39:57.167Z,54.32
2023-04-03T09:42:04.786Z,52.84
2023-04-03T09:44:22.962Z,52.71
2023-04-03T09:46:36.074Z,51.65
2023-04-03T09:48:40.850Z,51.15
2023-04-03T09:50:51.900Z,51.83
2023-04-03T09:52:53.869Z,50.74
2023-04-03T09:55:09.790Z,50.03
2023-04-03T09:57:14.504Z,50.08
2023-04-03T09:59:18.134Z,49.10
2023-04-03T10:01:31.991Z,49.03
2023-04-03T10:03:36.895Z,49.39
2023-04-03T10:05:42.720Z,49.52
2023-04-03T10:07:51.498Z,49.91
2023-04-03T10:10:00.304Z,49.55
2023-04-03T10:12:07.036Z,49.55
2023-04-03T10:14:18.555Z,49.39
2023-04-03T10:16:28.652Z,49.21
2023-04-03T10:18:34.415Z,49.80
2023-04-03T10:20:41.003Z,50.84
2023-04-03T10:22:52.997Z,50.97
2023-04-03T10:25:12.203Z,50.75
2023-04-03T10:27:19.800Z,50.87
2023-04-03T10:29:32.704Z,51.34
2023-04-03T10:31:50.371Z,50.83
2023-04-03T10:34:11.828Z,49.85
2023-04-03T10:36:26.056Z,48.93
2023-04-03T10:38:29.489Z,48.62
2023-04-03T10:40:36.219Z,48.62
2023-04-03T10:42:38.726Z,49.78
2023-04-03T10:44:55.729Z,49.76
2023-04-03T10:47:07.910Z,49.05
2023-04-03T10:49:21.420Z,47.93
2023-04-03T10:51:30.935Z,48.03
2023-04-03T10:53:52.725Z,47.68
2023-04-03T10:56:08.219Z,46.94
2023-04-03T10:58:24.589Z,48.75
2023-04-03T11:00:38.964Z,48.90
2023-04-03T11:03:09.814Z,48.49
2023-04-03T11:05:40.992Z,48.05
2023-04-03T11:07:49.138Z,47.41
2023-04-03T11:09:59.818Z,47.64
2023-04-03T11:12:11.300Z,47.52
2023-04-03T11:14:27.400Z,46.27
2023-04-03T11:16:37.872Z,45.69
2023-04-03T11:18:55.141Z,44.94
2023-04-03T11:21:05.350Z,43.88
2023-04-03T11:23:17.353Z,42.72
2023-04-03T11:25:24.592Z,42.82
2023-04-03T11:27:28.734Z,42.67
2023-04-03T11:29:41.927Z,40.72
2023-04-03T11:31:50.764Z,40.82
2023-04-03T11:34:00.368Z,40.63
2023-04-03T11:36:19.036Z,40.15
2023-04-03T11:38:35.920Z,40.67
2023-04-03T11:40:39.686Z,40.25
2023-04-03T11:42:44.026Z,39.43
2023-04-03T11:44:46.169Z,39.19
2023-04-03T11:46:58.298Z,39.77
2023-04-03T11:49:00.452Z,38.75
2023-04-03T11:51:23.628Z,38.51
2023-04-03T11:53:30.439Z,38.40
2023-04-03T11:55:32.736Z,38.66
2023-04-03T11:57:46.257Z,38.83
2023-04-03T11:59:48.350Z,38.61
2023-04-03T12:01:50.774Z,38.15
2023-04-03T12:03:53.167Z,37.99
2023-04-03T12:06:00.751Z,37.67
2023-04-03T12:08:21.754Z,37.36
2023-04-03T12:12:36.676Z,37.59
2023-04-03T12:14:41.464Z,37.34
2023-04-03T12:16:47.318Z,37.33
2023-04-03T12:18:50.701Z,36.80
2023-04-03T12:20:53.457Z,36.96
2023-04-03T12:23:09.008Z,36.83
2023-04-03T12:25:44.225Z,36.29
2023-04-03T12:27:46.296Z,35.67
2023-04-03T12:29:50.720Z,35.88
2023-04-03T12:32:15.628Z,36.08
2023-04-03T12:34:40.252Z,35.66
2023-04-03T12:36:59.967Z,35.18
2023-04-03T12:39:12.447Z,34.09
2023-04-03T12:41:19.953Z,34.27
2023-04-03T12:43:30.036Z,35.12
2023-04-03T12:45:42.441Z,35.72
2023-04-03T12:47:46.131Z,35.67
2023-04-03T12:49:53.211Z,35.72
2023-04-03T12:51:56.163Z,35.35
2023-04-03T12:54:03.786Z,34.83
2023-04-03T12:56:24.666Z,35.09
2023-04-03T12:58:27.880Z,34.83
2023-04-03T13:00:34.544Z,34.02
2023-04-03T13:02:36.913Z,34.22
2023-04-03T13:04:39.800Z,33.92
2023-04-03T13:06:44.902Z,34.07
2023-04-03T13:08:54.070Z,33.51
2023-04-03T13:11:02.504Z,33.17
2023-04-03T13:13:16.479Z,32.73
2023-04-03T13:15:29.587Z,33.16
2023-04-03T13:17:33.225Z,32.76
2023-04-03T13:19:35.562Z,32.09
2023-04-03T13:21:37.766Z,33.04
2023-04-03T13:23:46.023Z,32.47
2023-04-03T13:25:49.452Z,32.86
2023-04-03T13:27:53.834Z,33.38
2023-04-03T13:30:02.696Z,32.66
2023-04-03T13:32:06.705Z,32.72
2023-04-03T13:34:12.595Z,33.11
2023-04-03T13:36:21.681Z,32.83
2023-04-03T13:38:32.590Z,33.38
2023-04-03T13:40:47.050Z,32.88
2023-04-03T13:43:01.328Z,32.78
2023-04-03T13:45:21.060Z,32.79
2023-04-03T13:47:25.758Z,32.72
2023-04-03T13:49:37.168Z,33.09
2023-04-03T13:51:40.304Z,32.61
2023-04-03T13:53:49.669Z,32.01
2023-04-03T13:55:58.695Z,31.83
2023-04-03T13:58:10.159Z,32.63
2023-04-03T14:00:30.694Z,32.69
2023-04-03T14:02:34.760Z,32.70
2023-04-03T14:04:45.358Z,33.56
2023-04-03T14:06:47.642Z,33.97
2023-04-03T14:08:50.364Z,33.36
2023-04-03T14:10:52.888Z,33.54
2023-04-03T14:12:54.886Z,33.29
2023-04-03T14:14:57.243Z,32.31
2023-04-03T14:17:02.585Z,32.13
2023-04-03T14:19:04.847Z,31.90
2023-04-03T14:21:06.961Z,32.00
2023-04-03T14:23:10.290Z,31.56
2023-04-03T14:25:13.291Z,30.78
2023-04-03T14:27:28.201Z,30.52
2023-04-03T14:29:30.090Z,30.61
2023-04-03T14:31:32.184Z,30.35
2023-04-03T14:33:36.859Z,31.00
2023-04-03T14:35:38.856Z,30.31
2023-04-03T14:37:41.338Z,29.83
2023-04-03T14:39:43.993Z,29.73
2023-04-03T14:41:49.430Z,29.89
2023-04-03T14:43:54.569Z,30.43
2023-04-03T14:45:56.763Z,30.48
2023-04-03T14:48:00.152Z,30.23
2023-04-03T14:50:04.327Z,30.55
2023-04-03T14:52:06.968Z,30.09
2023-04-03T14:54:22.692Z,30.77
2023-04-03T14:56:28.418Z,31.54
2023-04-03T14:58:33.008Z,31.48
2023-04-03T15:00:35.218Z,31.90
2023-04-03T15:02:39.940Z,32.60
2023-04-03T15:04:42.226Z,31.90
2023-04-03T15:06:45.247Z,31.94
2023-04-03T15:08:48.746Z,31.28
2023-04-03T15:10:51.209Z,32.09
2023-04-03T15:12:53.686Z,32.14
2023-04-03T15:15:01.138Z,32.12
2023-04-03T15:17:07.252Z,32.63
2023-04-03T15:19:09.282Z,33.50
2023-04-03T15:21:11.712Z,33.00
2023-04-03T15:23:16.969Z,33.80
2023-04-03T15:25:19.391Z,32.36
2023-04-03T15:27:21.460Z,32.11
2023-04-03T15:29:23.431Z,32.05
2023-04-03T15:31:25.447Z,32.03
2023-04-03T15:33:27.540Z,31.87
2023-04-03T15:35:29.618Z,31.31
2023-04-03T15:37:31.960Z,30.91
2023-04-03T15:39:34.000Z,31.07
2023-04-03T15:41:36.323Z,31.54
2023-04-03T15:43:38.261Z,31.07
2023-04-03T15:45:41.924Z,31.02
2023-04-03T15:47:44.377Z,30.26
2023-04-03T15:49:46.478Z,30.23
2023-04-03T15:51:48.431Z,30.27
2023-04-03T15:53:50.696Z,30.23
2023-04-03T15:55:52.625Z,30.26
2023-04-03T15:57:55.157Z,31.22
2023-04-03T15:59:57.741Z,32.66
2023-04-03T16:02:02.549Z,31.58
2023-04-03T16:04:05.679Z,32.38
2023-04-03T16:06:10.724Z,32.89
2023-04-03T16:08:13.676Z,32.69
2023-04-03T16:10:18.320Z,32.99
2023-04-03T16:12:20.620Z,32.01
2023-04-03T16:14:22.593Z,32.29
2023-04-03T16:16:28.401Z,33.02
2023-04-03T16:18:35.448Z,32.54
2023-04-03T16:20:38.522Z,32.44
2023-04-03T16:22:41.457Z,32.39
2023-04-03T16:24:43.577Z,32.61
2023-04-03T16:26:45.837Z,33.36
2023-04-03T16:28:47.924Z,34.24
2023-04-03T16:30:50.721Z,33.65
2023-04-03T16:32:53.097Z,33.99
2023-04-03T16:34:55.101Z,34.44
2023-04-03T16:36:57.312Z,33.00
2023-04-03T16:38:59.288Z,32.54
2023-04-03T16:41:05.505Z,32.56
2023-04-03T16:43:07.592Z,33.39
2023-04-03T16:45:10.174Z,33.25
2023-04-03T16:47:13.957Z,32.13
2023-04-03T16:49:16.789Z,32.71
2023-04-03T16:51:18.890Z,32.15
2023-04-03T16:53:22.069Z,32.35
2023-04-03T16:55:24.129Z,32.55
2023-04-03T16:57:26.237Z,32.39
2023-04-03T16:59:28.450Z,31.67
2023-04-03T17:01:30.750Z,31.92
2023-04-03T17:03:33.580Z,32.19
2023-04-03T17:05:36.080Z,31.77
2023-04-03T17:07:38.167Z,32.19
2023-04-03T17:09:40.114Z,32.91
2023-04-03T17:11:42.697Z,32.78
2023-04-03T17:13:46.984Z,32.74
2023-04-03T17:15:49.309Z,32.50
2023-04-03T17:17:53.354Z,32.73
2023-04-03T17:19:56.761Z,31.27
2023-04-03T17:21:59.503Z,30.34
2023-04-03T17:24:04.683Z,30.86
2023-04-03T17:26:06.809Z,31.17
2023-04-03T17:28:09.054Z,31.39
2023-04-03T17:30:11.841Z,31.73
2023-04-03T17:32:13.971Z,32.30
2023-04-03T17:34:16.255Z,32.71
2023-04-03T17:36:18.373Z,32.79
2023-04-03T17:38:20.389Z,33.16
2023-04-03T17:40:22.343Z,33.40
2023-04-03T17:42:24.307Z,34.11
2023-04-03T17:44:26.451Z,33.68
2023-04-03T17:46:28.646Z,33.92
2023-04-03T17:48:32.347Z,34.08
2023-04-03T17:50:34.373Z,34.29
2023-04-03T17:52:36.430Z,35.53
2023-04-03T17:54:38.468Z,35.73
2023-04-03T17:56:40.589Z,35.30
2023-04-03T17:58:42.862Z,35.68
2023-04-03T18:00:45.126Z,35.31
2023-04-03T18:02:47.116Z,35.37
2023-04-03T18:04:53.282Z,34.70
2023-04-03T18:06:56.177Z,35.14
2023-04-03T18:09:09.089Z,35.07
2023-04-03T18:11:11.447Z,35.61
2023-04-03T18:13:14.843Z,35.86
2023-04-03T18:15:17.982Z,35.68
2023-04-03T18:17:19.951Z,36.04
2023-04-03T18:19:23.463Z,36.32
2023-04-03T18:21:26.144Z,36.05
2023-04-03T18:23:31.325Z,36.52
2023-04-03T18:27:40.787Z,36.33
2023-04-03T18:29:45.598Z,37.43
2023-04-03T18:31:53.032Z,36.82
2023-04-03T18:33:59.135Z,37.79
2023-04-03T18:36:05.066Z,38.42
2023-04-03T18:38:07.101Z,39.02
2023-04-03T18:40:10.412Z,38.98
2023-04-03T18:42:17.250Z,40.35
2023-04-03T18:44:23.058Z,40.40
2023-04-03T18:46:25.204Z,39.73
2023-04-03T18:48:28.152Z,40.14
2023-04-03T18:50:31.888Z,39.57
2023-04-03T18:52:34.241Z,39.99
2023-04-03T18:54:37.553Z,39.85
2023-04-03T18:56:39.583Z,39.23
2023-04-03T18:58:41.663Z,39.92
2023-04-03T19:00:43.818Z,39.89
2023-04-03T19:02:46.391Z,40.02
2023-04-03T19:04:48.931Z,39.65
2023-04-03T19:06:51.773Z,39.86
2023-04-03T19:08:54.030Z,41.20
2023-04-03T19:10:56.076Z,40.61
2023-04-03T19:12:58.178Z,40.31
2023-04-03T19:15:00.198Z,41.16
2023-04-03T19:17:04.212Z,40.61
2023-04-03T19:19:06.667Z,40.83
2023-04-03T19:21:08.789Z,40.81
2023-04-03T19:23:10.993Z,41.11
2023-04-03T19:25:13.310Z,41.41
2023-04-03T19:27:15.392Z,41.65
2023-04-03T19:29:18.061Z,41.62
2023-04-03T19:31:22.390Z,41.86
2023-04-03T19:33:25.875Z,41.48
2023-04-03T19:35:28.045Z,41.69
2023-04-03T19:37:30.573Z,41.41
2023-04-03T19:39:35.367Z,42.30
2023-04-03T19:41:38.318Z,41.71
2023-04-03T19:43:40.538Z,43.51
2023-04-03T19:45:44.138Z,42.69
2023-04-03T19:47:47.310Z,42.33
2023-04-03T19:49:49.493Z,42.58
2023-04-03T19:51:51.546Z,42.20
2023-04-03T19:53:53.756Z,42.49
2023-04-03T19:55:57.437Z,42.65
2023-04-03T19:58:00.904Z,43.02
2023-04-03T20:00:03.272Z,43.28
2023-04-03T20:02:05.690Z,43.84
2023-04-03T20:04:08.263Z,44.11
2023-04-03T20:06:10.359Z,43.97
2023-04-03T20:08:12.628Z,43.68
2023-04-03T20:10:16.456Z,44.24
2023-04-03T20:12:18.738Z,43.07
2023-04-03T20:14:21.104Z,43.65
2023-04-03T20:16:26.071Z,43.24
2023-04-03T20:18:28.923Z,43.44
2023-04-03T20:20:31.192Z,43.81
2023-04-03T20:22:39.870Z,43.11
2023-04-03T20:24:42.114Z,43.49
2023-04-03T20:26:46.562Z,43.44
2023-04-03T20:28:48.970Z,43.46
2023-04-03T20:30:52.686Z,43.48
2023-04-03T20:32:55.965Z,43.55
2023-04-03T20:35:04.460Z,43.45
2023-04-03T20:37:07.087Z,43.48
2023-04-03T20:39:09.444Z,44.04
2023-04-03T20:41:11.561Z,43.90
2023-04-03T20:43:13.658Z,43.70
2023-04-03T20:45:15.838Z,44.73
2023-04-03T20:47:18.454Z,43.18
2023-04-03T20:49:21.339Z,44.09
2023-04-03T20:51:24.351Z,43.76
2023-04-03T20:53:27.393Z,43.89
2023-04-03T20:55:30.117Z,43.53
2023-04-03T20:57:33.982Z,44.03
2023-04-03T20:59:39.617Z,44.37
2023-04-03T21:01:41.733Z,43.95
2023-04-03T21:03:46.444Z,44.49
2023-04-03T21:05:48.517Z,43.65
2023-04-03T21:08:10.952Z,43.63
2023-04-03T21:10:32.643Z,43.65
2023-04-03T21:12:53.532Z,43.73
2023-04-03T21:15:14.847Z,43.41
2023-04-03T21:17:16.893Z,43.48
2023-04-03T21:19:20.505Z,43.36
2023-04-03T21:21:24.747Z,43.21
2023-04-03T21:23:28.582Z,43.67
2023-04-03T21:25:30.975Z,43.78
2023-04-03T21:27:32.923Z,43.72
2023-04-03T21:29:34.938Z,44.84
2023-04-03T21:31:58.071Z,44.14
2023-04-03T21:34:00.911Z,44.44
2023-04-03T21:36:03.501Z,43.88
2023-04-03T21:38:05.936Z,44.35
2023-04-03T21:40:08.686Z,43.44
2023-04-03T21:42:10.654Z,44.19
2023-04-03T21:44:12.645Z,43.44
2023-04-03T21:46:14.591Z,43.51
2023-04-03T21:48:20.636Z,43.69
2023-04-03T21:50:22.625Z,44.11
2023-04-03T21:52:24.641Z,43.86
2023-04-03T21:54:26.672Z,43.90
2023-04-03T21:56:29.052Z,43.78
2023-04-03T21:58:32.537Z,44.46
2023-04-03T22:00:34.747Z,45.18
2023-04-03T22:02:41.111Z,44.10
2023-04-03T22:04:43.203Z,44.48
2023-04-03T22:06:46.032Z,44.50
2023-04-03T22:08:48.176Z,45.97
2023-04-03T22:10:50.160Z,45.40
2023-04-03T22:12:52.593Z,45.07
2023-04-03T22:14:54.605Z,45.76
2023-04-03T22:16:57.923Z,45.86
2023-04-03T22:18:59.949Z,45.19
2023-04-03T22:21:02.179Z,46.02
2023-04-03T22:23:04.924Z,45.76
2023-04-03T22:25:07.796Z,45.79
2023-04-03T22:27:09.736Z,45.94
2023-04-03T22:29:13.317Z,45.83
2023-04-03T22:31:16.543Z,46.48
2023-04-03T22:33:18.935Z,46.73
2023-04-03T22:35:21.603Z,45.94
2023-04-03T22:37:23.515Z,46.48
2023-04-03T22:39:25.379Z,46.35
2023-04-03T22:41:27.360Z,46.57
2023-04-03T22:43:33.595Z,46.33
2023-04-03T22:45:35.718Z,46.56
2023-04-03T22:47:38.089Z,46.91
2023-04-03T22:49:40.009Z,47.40
2023-04-03T22:51:41.969Z,47.74
2023-04-03T22:53:43.956Z,47.08
2023-04-03T22:55:55.564Z,46.62
2023-04-03T22:57:57.512Z,46.39
2023-04-03T22:59:59.357Z,46.42
2023-04-03T23:02:01.632Z,46.84
2023-04-03T23:04:03.883Z,46.40
2023-04-03T23:06:06.714Z,46.64
2023-04-03T23:08:08.683Z,47.05
2023-04-03T23:10:12.080Z,47.02
2023-04-03T23:12:14.026Z,46.66
2023-04-03T23:14:15.929Z,46.93
2023-04-03T23:16:19.260Z,47.45
2023-04-03T23:18:21.886Z,47.72
2023-04-03T23:20:23.933Z,47.47
2023-04-03T23:22:26.059Z,47.70
2023-04-03T23:24:28.392Z,47.59
2023-04-03T23:26:30.415Z,47.96
2023-04-03T23:28:33.570Z,47.91
2023-04-03T23:30:35.621Z,47.92
2023-04-03T23:32:37.657Z,47.64
2023-04-03T23:34:39.638Z,47.98
2023-04-03T23:36:41.647Z,47.96
2023-04-03T23:38:43.582Z,48.36
2023-04-03T23:40:46.406Z,48.32
2023-04-03T23:42:48.393Z,48.29
2023-04-03T23:44:50.270Z,48.58
2023-04-03T23:46:52.271Z,48.63
2023-04-03T23:48:54.095Z,47.94
2023-04-03T23:50:56.325Z,48.16
2023-04-03T23:52:58.338Z,48.41
2023-04-03T23:55:00.199Z,48.50
2023-04-03T23:57:02.061Z,48.87
2023-04-03T23:59:04.063Z,49.05
